Stanford, Minnesota
Current Conditions -  °F | °C
As of 12:36 PM on Thursday 23 Oct 2014 (Local Time) from KCBG Reporting Station
Broken Clouds Broken Clouds  
Wind Chill: 59°   Ceiling: 1000
Heat Index: 59°   Visibility: 10mi
Dew Point: 48°   Wind: 7mph
Humidity: 67%   Direction: 190°S
Pressure: 29.97"   Gusts: NA
Location:  45.6667°N, 93.2669°W
Report Text: KCBG 231736Z AUTO 19006KT 10SM BKN010 15/09 A2997 RMK AO2
Loading
Personal Weather Stations






























Interactive Weather Map
Tropical Storm Tracking
New forecast layout! Learn more

10-Day Weather Forecast

Advertisements
Track Severe Weather on mobile